createdAt,value
2019-05-26T00:00:45.979Z,11.30
2019-05-26T00:03:48.218Z,13.23
2019-05-26T00:06:50.438Z,11.93
2019-05-26T00:09:52.706Z,11.83
2019-05-26T00:12:54.914Z,13.23
2019-05-26T00:15:57.129Z,12.37
2019-05-26T00:18:59.351Z,13.13
2019-05-26T00:22:01.596Z,12.60
2019-05-26T00:25:03.929Z,12.50
2019-05-26T00:28:06.170Z,12.77
2019-05-26T00:31:08.467Z,13.77
2019-05-26T00:34:10.707Z,13.07
2019-05-26T00:37:13.016Z,11.77
2019-05-26T00:40:15.254Z,12.43
2019-05-26T00:43:17.463Z,13.43
2019-05-26T00:46:19.707Z,10.73
2019-05-26T00:49:21.967Z,13.60
2019-05-26T00:52:24.356Z,10.20
2019-05-26T00:55:26.611Z,10.57
2019-05-26T00:58:28.846Z,9.60
2019-05-26T01:01:31.072Z,9.93
2019-05-26T01:04:33.315Z,8.70
2019-05-26T01:07:35.631Z,8.60
2019-05-26T01:10:37.899Z,10.10
2019-05-26T01:13:40.136Z,8.90
2019-05-26T01:16:42.343Z,8.60
2019-05-26T01:19:44.606Z,8.97
2019-05-26T01:22:46.881Z,9.73
2019-05-26T01:25:49.227Z,8.13
2019-05-26T01:28:51.496Z,7.90
2019-05-26T01:31:53.780Z,8.43
2019-05-26T01:34:56.049Z,7.70
2019-05-26T01:37:58.351Z,7.70
2019-05-26T01:41:00.551Z,7.40
2019-05-26T01:44:02.896Z,7.70
2019-05-26T01:47:05.168Z,7.83
2019-05-26T01:50:07.450Z,6.73
2019-05-26T01:53:09.710Z,6.60
2019-05-26T01:56:11.962Z,6.17
2019-05-26T01:59:14.189Z,6.50
2019-05-26T02:02:16.469Z,6.23
2019-05-26T02:05:18.759Z,6.23
2019-05-26T02:08:21.015Z,6.87
2019-05-26T02:11:23.228Z,6.33
2019-05-26T02:14:25.488Z,5.63
2019-05-26T02:17:27.824Z,5.80
2019-05-26T02:20:30.041Z,5.73
2019-05-26T02:23:32.270Z,6.00
2019-05-26T02:26:34.515Z,4.90
2019-05-26T02:29:36.779Z,5.50
2019-05-26T02:32:39.009Z,5.10
2019-05-26T02:35:41.256Z,4.87
2019-05-26T02:38:59.812Z,4.57
2019-05-26T02:41:45.756Z,4.30
2019-05-26T02:44:47.960Z,4.47
2019-05-26T02:47:50.208Z,4.50
2019-05-26T02:50:52.487Z,4.17
2019-05-26T02:53:54.764Z,4.73
2019-05-26T02:56:56.962Z,4.30
2019-05-26T02:59:59.195Z,4.30
2019-05-26T03:03:01.436Z,4.73
2019-05-26T03:06:03.728Z,4.27
2019-05-26T03:09:21.743Z,3.97
2019-05-26T03:12:08.313Z,4.30
2019-05-26T03:15:11.077Z,3.97
2019-05-26T03:18:13.404Z,4.30
2019-05-26T03:24:23.474Z,3.80
2019-05-26T03:27:25.729Z,3.90
2019-05-26T03:30:27.960Z,3.70
2019-05-26T03:33:30.197Z,4.00
2019-05-26T03:36:32.423Z,3.80
2019-05-26T03:39:44.589Z,4.33
2019-05-26T03:42:36.914Z,3.70
2019-05-26T03:45:50.708Z,4.27
2019-05-26T03:48:53.010Z,4.03
2019-05-26T03:51:55.259Z,4.33
2019-05-26T03:54:57.529Z,3.90
2019-05-26T03:57:59.762Z,3.93
2019-05-26T04:01:01.994Z,3.97
2019-05-26T04:04:04.301Z,3.80
2019-05-26T04:07:06.641Z,3.53
2019-05-26T04:10:08.836Z,3.60
2019-05-26T04:13:11.100Z,3.40
2019-05-26T04:16:13.404Z,3.77
2019-05-26T04:19:15.637Z,3.83
2019-05-26T04:22:17.829Z,3.77
2019-05-26T04:25:20.115Z,3.77
2019-05-26T04:28:22.302Z,3.67
2019-05-26T04:31:24.521Z,3.63
2019-05-26T04:34:26.736Z,3.47
2019-05-26T04:37:29.014Z,3.63
2019-05-26T04:40:31.277Z,3.43
2019-05-26T04:43:33.531Z,3.60
2019-05-26T04:46:35.735Z,3.50
2019-05-26T04:49:38.055Z,3.43
2019-05-26T04:52:40.297Z,3.70
2019-05-26T04:55:42.556Z,3.30
2019-05-26T04:58:44.787Z,3.50
2019-05-26T05:01:47.050Z,3.57
2019-05-26T05:04:49.605Z,3.67
2019-05-26T05:07:51.867Z,3.13
2019-05-26T05:10:54.226Z,3.50
2019-05-26T05:13:56.423Z,3.53
2019-05-26T05:16:58.619Z,3.30
2019-05-26T05:20:00.888Z,3.40
2019-05-26T05:23:03.177Z,3.17
2019-05-26T05:26:05.458Z,2.83
2019-05-26T05:29:07.676Z,3.23
2019-05-26T05:32:09.934Z,3.10
2019-05-26T05:35:12.208Z,2.83
2019-05-26T05:38:14.422Z,2.77
2019-05-26T05:41:16.733Z,3.10
2019-05-26T05:44:18.973Z,3.40
2019-05-26T05:47:21.194Z,3.20
2019-05-26T05:50:23.444Z,3.43
2019-05-26T05:53:25.643Z,3.43
2019-05-26T05:56:27.871Z,3.70
2019-05-26T05:59:30.069Z,2.93
2019-05-26T06:02:32.360Z,3.20
2019-05-26T06:05:34.582Z,3.20
2019-05-26T06:08:36.799Z,3.00
2019-05-26T06:11:39.079Z,3.20
2019-05-26T06:14:41.351Z,3.57
2019-05-26T06:17:43.588Z,3.30
2019-05-26T06:20:45.845Z,3.47
2019-05-26T06:23:48.063Z,3.30
2019-05-26T06:26:50.305Z,3.23
2019-05-26T06:29:58.733Z,3.83
2019-05-26T06:32:55.443Z,3.90
2019-05-26T06:35:57.687Z,4.00
2019-05-26T06:38:59.914Z,4.67
2019-05-26T06:42:02.192Z,3.43
2019-05-26T06:45:04.790Z,4.23
2019-05-26T06:48:07.281Z,4.77
2019-05-26T06:51:09.537Z,4.30
2019-05-26T06:54:11.862Z,4.20
2019-05-26T06:57:14.116Z,4.03
2019-05-26T07:00:16.497Z,4.17
2019-05-26T07:03:18.682Z,4.50
2019-05-26T07:06:20.908Z,4.93
2019-05-26T07:09:23.136Z,4.83
2019-05-26T07:12:25.343Z,4.67
2019-05-26T07:15:27.568Z,4.70
2019-05-26T07:18:29.789Z,4.63
2019-05-26T07:21:32.000Z,4.60
2019-05-26T07:24:34.277Z,4.03
2019-05-26T07:27:36.532Z,5.50
2019-05-26T07:30:38.751Z,5.30
2019-05-26T07:33:41.048Z,5.20
2019-05-26T07:36:43.293Z,4.70
2019-05-26T07:39:45.541Z,5.37
2019-05-26T07:42:47.739Z,4.20
2019-05-26T07:45:49.979Z,4.77
2019-05-26T07:48:52.228Z,4.97
2019-05-26T07:51:54.491Z,4.63
2019-05-26T07:54:56.764Z,4.73
2019-05-26T07:57:59.050Z,4.87
2019-05-26T08:01:01.273Z,4.67
2019-05-26T08:04:03.622Z,4.27
2019-05-26T08:07:05.884Z,4.33
2019-05-26T08:10:08.172Z,4.20
2019-05-26T08:13:10.511Z,4.43
2019-05-26T08:16:12.772Z,4.30
2019-05-26T08:19:15.024Z,3.90
2019-05-26T08:22:17.251Z,4.33
2019-05-26T08:25:19.471Z,3.80
2019-05-26T08:28:21.671Z,4.40
2019-05-26T08:31:23.936Z,4.07
2019-05-26T08:34:26.180Z,4.30
2019-05-26T08:37:28.410Z,3.80
2019-05-26T08:40:30.670Z,3.80
2019-05-26T08:43:32.913Z,3.50
2019-05-26T08:46:35.122Z,3.70
2019-05-26T08:49:37.369Z,4.03
2019-05-26T08:52:39.656Z,3.73
2019-05-26T08:55:41.920Z,5.00
2019-05-26T08:58:44.214Z,4.00
2019-05-26T09:01:46.395Z,3.80
2019-05-26T09:04:48.641Z,3.70
2019-05-26T09:07:50.912Z,3.67
2019-05-26T09:10:53.124Z,3.97
2019-05-26T09:13:55.335Z,3.33
2019-05-26T09:16:57.572Z,3.50
2019-05-26T09:19:59.825Z,3.70
2019-05-26T09:23:02.048Z,3.83
2019-05-26T09:26:04.363Z,3.37
2019-05-26T09:29:06.591Z,4.07
2019-05-26T09:32:08.826Z,2.93
2019-05-26T09:35:11.116Z,3.37
2019-05-26T09:38:13.441Z,3.53
2019-05-26T09:41:15.666Z,3.40
2019-05-26T09:44:17.975Z,3.03
2019-05-26T09:47:20.154Z,3.07
2019-05-26T09:50:22.376Z,2.60
2019-05-26T09:53:24.633Z,3.60
2019-05-26T09:56:26.920Z,2.70
2019-05-26T09:59:29.164Z,2.30
2019-05-26T10:02:31.361Z,3.40
2019-05-26T10:05:33.640Z,3.30
2019-05-26T10:08:35.854Z,3.50
2019-05-26T10:11:38.148Z,3.27
2019-05-26T10:14:40.430Z,3.20
2019-05-26T10:17:42.695Z,2.87
2019-05-26T10:20:44.941Z,2.77
2019-05-26T10:23:47.151Z,2.60
2019-05-26T10:26:49.390Z,2.47
2019-05-26T10:29:51.647Z,2.40
2019-05-26T10:32:53.889Z,2.63
2019-05-26T10:35:56.103Z,2.40
2019-05-26T10:38:58.319Z,2.30
2019-05-26T10:42:00.555Z,2.27
2019-05-26T10:45:03.183Z,2.47
2019-05-26T10:48:05.430Z,2.70
2019-05-26T10:51:07.697Z,2.40
2019-05-26T10:54:09.919Z,2.77
2019-05-26T10:57:12.206Z,2.67
2019-05-26T11:00:14.463Z,2.50
2019-05-26T11:03:16.680Z,2.67
2019-05-26T11:06:18.902Z,2.37
2019-05-26T11:09:21.163Z,2.70
2019-05-26T11:12:23.403Z,2.40
2019-05-26T11:15:25.670Z,2.57
2019-05-26T11:18:27.918Z,2.30
2019-05-26T11:21:30.195Z,2.57
2019-05-26T11:24:32.456Z,2.20
2019-05-26T11:27:34.770Z,2.30
2019-05-26T11:30:37.037Z,2.30
2019-05-26T11:33:39.277Z,2.37
2019-05-26T11:36:41.499Z,2.50
2019-05-26T11:39:43.777Z,2.23
2019-05-26T11:42:45.996Z,2.40
2019-05-26T11:45:48.236Z,2.30
2019-05-26T11:48:50.496Z,2.37
2019-05-26T11:51:52.755Z,2.30
2019-05-26T11:54:55.012Z,2.10
2019-05-26T11:57:57.263Z,2.30
2019-05-26T12:00:59.659Z,2.30
2019-05-26T12:04:01.887Z,2.37
2019-05-26T12:07:04.675Z,2.20
2019-05-26T12:10:06.579Z,1.90
2019-05-26T12:13:08.797Z,2.20
2019-05-26T12:16:11.043Z,2.20
2019-05-26T12:19:13.303Z,2.20
2019-05-26T12:22:15.526Z,2.23
2019-05-26T12:25:17.878Z,2.00
2019-05-26T12:28:20.094Z,1.83
2019-05-26T12:31:22.299Z,2.30
2019-05-26T12:34:24.574Z,2.57
2019-05-26T12:37:26.739Z,2.33
2019-05-26T12:40:29.164Z,2.63
2019-05-26T12:43:31.512Z,2.23
2019-05-26T12:46:33.791Z,2.23
2019-05-26T12:49:36.031Z,2.50
2019-05-26T12:52:38.314Z,2.10
2019-05-26T12:55:40.571Z,2.50
2019-05-26T12:58:42.785Z,2.10
2019-05-26T13:01:45.017Z,2.00
2019-05-26T13:04:47.257Z,2.23
2019-05-26T13:07:49.469Z,2.10
2019-05-26T13:10:51.704Z,2.27
2019-05-26T13:13:53.960Z,2.10
2019-05-26T13:16:56.193Z,2.27
2019-05-26T13:19:58.468Z,2.20
2019-05-26T13:23:00.666Z,2.00
2019-05-26T13:26:02.985Z,2.20
2019-05-26T13:29:05.244Z,2.00
2019-05-26T13:32:07.540Z,2.07
2019-05-26T13:35:09.819Z,2.00
2019-05-26T13:38:12.152Z,2.10
2019-05-26T13:41:14.384Z,2.20
2019-05-26T13:44:16.603Z,1.87
2019-05-26T13:47:26.159Z,2.10
2019-05-26T13:50:21.204Z,1.93
2019-05-26T13:53:23.475Z,2.00
2019-05-26T13:56:25.724Z,1.90
2019-05-26T13:59:27.927Z,2.07
2019-05-26T14:02:30.139Z,2.00
2019-05-26T14:05:32.416Z,2.20
2019-05-26T14:08:34.667Z,3.30
2019-05-26T14:11:36.905Z,17.37
2019-05-26T14:14:39.178Z,3.30
2019-05-26T14:17:41.458Z,1.73
2019-05-26T14:20:43.733Z,1.87
2019-05-26T14:23:46.031Z,2.23
2019-05-26T14:26:48.280Z,2.17
2019-05-26T14:29:50.603Z,1.93
2019-05-26T14:32:52.901Z,15.90
2019-05-26T14:35:55.184Z,2.37
2019-05-26T14:38:57.460Z,1.70
2019-05-26T14:41:59.767Z,3.77
2019-05-26T14:45:04.142Z,2.20
2019-05-26T14:48:04.620Z,2.10
2019-05-26T14:51:06.916Z,2.40
2019-05-26T14:54:09.215Z,2.00
2019-05-26T14:57:11.541Z,2.33
2019-05-26T15:00:13.844Z,1.73
2019-05-26T15:03:16.097Z,2.07
2019-05-26T15:06:18.457Z,2.20
2019-05-26T15:09:25.296Z,2.30
2019-05-26T15:12:23.012Z,2.17
2019-05-26T15:15:25.241Z,2.57
2019-05-26T15:18:27.458Z,2.37
2019-05-26T15:21:29.801Z,2.30
2019-05-26T15:24:32.091Z,2.10
2019-05-26T15:27:34.467Z,2.50
2019-05-26T15:30:36.708Z,2.00
2019-05-26T15:33:38.952Z,2.10
2019-05-26T15:36:41.164Z,2.10
2019-05-26T15:39:43.360Z,2.40
2019-05-26T15:42:45.607Z,2.30
2019-05-26T15:45:47.828Z,2.17
2019-05-26T15:48:50.104Z,2.00
2019-05-26T15:51:52.332Z,1.80
2019-05-26T15:54:54.670Z,2.03
2019-05-26T15:57:56.910Z,1.60
2019-05-26T16:00:59.182Z,2.00
2019-05-26T16:04:01.506Z,1.83
2019-05-26T16:07:03.943Z,2.00
2019-05-26T16:10:06.325Z,2.40
2019-05-26T16:13:08.576Z,2.20
2019-05-26T16:16:10.863Z,2.13
2019-05-26T16:19:13.104Z,1.70
2019-05-26T16:22:15.367Z,2.20
2019-05-26T16:25:17.672Z,2.17
2019-05-26T16:28:20.163Z,1.97
2019-05-26T16:31:22.285Z,2.30
2019-05-26T16:34:24.654Z,2.40
2019-05-26T16:37:26.875Z,2.10
2019-05-26T16:40:29.392Z,2.13
2019-05-26T16:43:31.604Z,2.23
2019-05-26T16:46:33.883Z,2.03
2019-05-26T16:49:36.120Z,2.70
2019-05-26T16:52:38.347Z,2.50
2019-05-26T16:55:40.641Z,2.60
2019-05-26T16:58:42.903Z,2.43
2019-05-26T17:01:45.130Z,2.63
2019-05-26T17:04:47.437Z,2.10
2019-05-26T17:07:50.607Z,2.40
2019-05-26T17:10:52.011Z,2.40
2019-05-26T17:13:54.301Z,2.40
2019-05-26T17:17:13.229Z,2.43
2019-05-26T17:19:58.825Z,2.40
2019-05-26T17:23:01.076Z,2.30
2019-05-26T17:26:03.387Z,2.30
2019-05-26T17:29:05.673Z,2.40
2019-05-26T17:32:07.992Z,2.93
2019-05-26T17:35:10.307Z,3.10
2019-05-26T17:38:12.536Z,2.50
2019-05-26T17:41:14.809Z,2.10
2019-05-26T17:44:17.084Z,2.00
2019-05-26T17:47:29.815Z,2.93
2019-05-26T17:50:21.640Z,2.50
2019-05-26T17:53:24.327Z,2.40
2019-05-26T17:56:26.628Z,2.50
2019-05-26T17:59:28.868Z,2.87
2019-05-26T18:02:31.137Z,2.30
2019-05-26T18:05:33.471Z,2.43
2019-05-26T18:08:36.622Z,2.37
2019-05-26T18:11:38.091Z,2.30
2019-05-26T18:14:40.343Z,2.40
2019-05-26T18:17:47.362Z,2.63
2019-05-26T18:20:44.879Z,2.63
2019-05-26T18:23:47.104Z,2.37
2019-05-26T18:26:49.457Z,2.50
2019-05-26T18:29:51.811Z,2.40
2019-05-26T18:32:54.088Z,2.50
2019-05-26T18:35:56.401Z,2.70
2019-05-26T18:38:58.653Z,2.50
2019-05-26T18:42:01.429Z,2.30
2019-05-26T18:45:04.115Z,2.50
2019-05-26T18:48:06.402Z,3.87
2019-05-26T18:51:08.899Z,5.27
2019-05-26T18:54:11.172Z,7.00
2019-05-26T18:57:13.395Z,7.07
2019-05-26T19:00:15.883Z,22.97
2019-05-26T19:03:18.168Z,28.30
2019-05-26T19:06:20.428Z,14.87
2019-05-26T19:09:22.701Z,6.80
2019-05-26T19:12:24.987Z,4.73
2019-05-26T19:15:27.301Z,4.23
2019-05-26T19:18:29.554Z,4.00
2019-05-26T19:21:31.801Z,3.37
2019-05-26T19:24:34.207Z,3.57
2019-05-26T19:27:36.481Z,3.60
2019-05-26T19:30:38.776Z,3.73
2019-05-26T19:33:41.103Z,3.30
2019-05-26T19:36:43.445Z,3.50
2019-05-26T19:39:45.764Z,3.47
2019-05-26T19:42:48.007Z,3.30
2019-05-26T19:45:50.246Z,3.40
2019-05-26T19:48:52.603Z,3.17
2019-05-26T19:51:54.845Z,3.70
2019-05-26T19:54:57.109Z,4.10
2019-05-26T19:57:59.335Z,4.07
2019-05-26T20:01:01.593Z,4.20
2019-05-26T20:04:03.887Z,4.00
2019-05-26T20:07:06.144Z,3.50
2019-05-26T20:10:08.474Z,3.80
2019-05-26T20:13:10.773Z,3.67
2019-05-26T20:16:13.012Z,3.37
2019-05-26T20:19:15.297Z,3.40
2019-05-26T20:22:17.573Z,3.63
2019-05-26T20:25:19.801Z,3.90
2019-05-26T20:28:22.066Z,3.50
2019-05-26T20:31:24.368Z,4.03
2019-05-26T20:34:26.664Z,4.10
2019-05-26T20:37:28.894Z,4.10
2019-05-26T20:40:31.139Z,4.03
2019-05-26T20:43:33.354Z,3.83
2019-05-26T20:46:35.646Z,3.60
2019-05-26T20:49:45.448Z,3.70
2019-05-26T20:52:40.272Z,4.67
2019-05-26T20:55:42.519Z,7.43
2019-05-26T20:58:44.749Z,19.63
2019-05-26T21:01:47.143Z,8.37
2019-05-26T21:04:49.425Z,6.50
2019-05-26T21:07:51.858Z,5.33
2019-05-26T21:10:54.099Z,5.07
2019-05-26T21:13:56.301Z,4.73
2019-05-26T21:16:58.521Z,5.37
2019-05-26T21:20:00.839Z,4.70
2019-05-26T21:23:03.113Z,4.20
2019-05-26T21:26:05.367Z,4.97
2019-05-26T21:29:07.624Z,4.60
2019-05-26T21:32:09.896Z,4.60
2019-05-26T21:35:12.217Z,4.80
2019-05-26T21:38:14.437Z,4.50
2019-05-26T21:41:16.639Z,4.87
2019-05-26T21:44:18.911Z,4.67
2019-05-26T21:47:21.127Z,5.13
2019-05-26T21:50:23.391Z,4.83
2019-05-26T21:53:25.612Z,4.70
2019-05-26T21:56:27.886Z,4.77
2019-05-26T21:59:30.169Z,4.70
2019-05-26T22:02:32.408Z,4.43
2019-05-26T22:05:34.677Z,4.50
2019-05-26T22:08:36.927Z,4.80
2019-05-26T22:11:39.320Z,4.90
2019-05-26T22:14:41.563Z,4.43
2019-05-26T22:17:43.783Z,4.60
2019-05-26T22:20:46.007Z,5.40
2019-05-26T22:23:48.215Z,4.50
2019-05-26T22:26:50.439Z,4.60
2019-05-26T22:29:52.799Z,4.43
2019-05-26T22:32:55.082Z,4.23
2019-05-26T22:35:57.387Z,4.23
2019-05-26T22:38:59.623Z,4.50
2019-05-26T22:42:01.872Z,4.50
2019-05-26T22:45:04.719Z,4.67
2019-05-26T22:48:07.195Z,4.10
2019-05-26T22:51:09.485Z,4.50
2019-05-26T22:54:11.851Z,4.40
2019-05-26T22:57:14.082Z,3.93
2019-05-26T23:00:16.402Z,4.30
2019-05-26T23:03:18.631Z,4.37
2019-05-26T23:06:20.867Z,4.13
2019-05-26T23:09:23.140Z,3.97
2019-05-26T23:12:25.403Z,4.30
2019-05-26T23:15:27.714Z,4.37
2019-05-26T23:18:29.968Z,4.43
2019-05-26T23:21:32.205Z,4.10
2019-05-26T23:24:34.420Z,4.20
2019-05-26T23:27:36.690Z,4.00
2019-05-26T23:30:38.932Z,3.70
2019-05-26T23:33:41.210Z,4.00
2019-05-26T23:36:43.458Z,3.90
2019-05-26T23:39:45.700Z,4.23
2019-05-26T23:42:47.928Z,3.67
2019-05-26T23:45:50.167Z,3.63
2019-05-26T23:48:52.410Z,4.00
2019-05-26T23:51:54.652Z,3.93
2019-05-26T23:54:56.907Z,3.93
2019-05-26T23:57:59.175Z,3.93
